sensor_id;sensor_type;location;lat;lon;timestamp;temperature;humidity
16964;DHT22;8598;50.508;10.436;2022-09-04T00:01:22;10.20;99.90
16964;DHT22;8598;50.508;10.436;2022-09-04T00:03:57;10.50;99.90
16964;DHT22;8598;50.508;10.436;2022-09-04T00:06:30;10.50;99.90
16964;DHT22;8598;50.508;10.436;2022-09-04T00:09:07;11.60;99.90
16964;DHT22;8598;50.508;10.436;2022-09-04T00:11:42;10.60;99.90
16964;DHT22;8598;50.508;10.436;2022-09-04T00:14:15;10.40;99.90
16964;DHT22;8598;50.508;10.436;2022-09-04T00:16:46;10.40;99.90
16964;DHT22;8598;50.508;10.436;2022-09-04T00:19:22;10.40;99.90
16964;DHT22;8598;50.508;10.436;2022-09-04T00:21:55;10.30;99.90
16964;DHT22;8598;50.508;10.436;2022-09-04T00:24:26;12.30;99.90
16964;DHT22;8598;50.508;10.436;2022-09-04T00:26:58;10.30;99.90
16964;DHT22;8598;50.508;10.436;2022-09-04T00:29:36;10.40;99.90
16964;DHT22;8598;50.508;10.436;2022-09-04T00:32:12;10.50;99.90
16964;DHT22;8598;50.508;10.436;2022-09-04T00:34:55;10.50;99.90
16964;DHT22;8598;50.508;10.436;2022-09-04T00:37:28;10.50;99.90
16964;DHT22;8598;50.508;10.436;2022-09-04T00:40:02;10.60;99.90
16964;DHT22;8598;50.508;10.436;2022-09-04T00:42:42;10.50;99.90
16964;DHT22;8598;50.508;10.436;2022-09-04T00:45:33;10.90;99.90
16964;DHT22;8598;50.508;10.436;2022-09-04T00:48:28;10.60;99.90
16964;DHT22;8598;50.508;10.436;2022-09-04T00:51:32;10.30;99.90
16964;DHT22;8598;50.508;10.436;2022-09-04T00:54:38;10.30;99.90
16964;DHT22;8598;50.508;10.436;2022-09-04T01:00:19;10.20;99.90
16964;DHT22;8598;50.508;10.436;2022-09-04T01:03:02;11.60;99.90
16964;DHT22;8598;50.508;10.436;2022-09-04T01:05:45;10.10;99.90
16964;DHT22;8598;50.508;10.436;2022-09-04T01:08:25;12.10;99.90
16964;DHT22;8598;50.508;10.436;2022-09-04T01:11:03;9.70;99.90
16964;DHT22;8598;50.508;10.436;2022-09-04T01:13:39;11.70;99.90
16964;DHT22;8598;50.508;10.436;2022-09-04T01:16:12;10.20;99.90
16964;DHT22;8598;50.508;10.436;2022-09-04T01:18:46;10.40;99.90
16964;DHT22;8598;50.508;10.436;2022-09-04T01:21:27;11.30;99.90
16964;DHT22;8598;50.508;10.436;2022-09-04T01:24:07;11.30;99.90
16964;DHT22;8598;50.508;10.436;2022-09-04T01:26:46;12.60;99.90
16964;DHT22;8598;50.508;10.436;2022-09-04T01:29:23;10.50;99.90
16964;DHT22;8598;50.508;10.436;2022-09-04T01:31:57;11.10;99.90
16964;DHT22;8598;50.508;10.436;2022-09-04T01:34:34;10.50;99.90
16964;DHT22;8598;50.508;10.436;2022-09-04T01:37:11;10.40;99.90
16964;DHT22;8598;50.508;10.436;2022-09-04T01:39:42;10.40;99.90
16964;DHT22;8598;50.508;10.436;2022-09-04T01:42:17;10.80;99.90
16964;DHT22;8598;50.508;10.436;2022-09-04T01:44:45;10.40;99.90
16964;DHT22;8598;50.508;10.436;2022-09-04T01:47:16;10.80;99.90
16964;DHT22;8598;50.508;10.436;2022-09-04T01:49:49;10.50;99.90
16964;DHT22;8598;50.508;10.436;2022-09-04T01:52:33;10.60;99.90
16964;DHT22;8598;50.508;10.436;2022-09-04T01:55:17;12.50;99.90
16964;DHT22;8598;50.508;10.436;2022-09-04T01:57:56;10.70;99.90
16964;DHT22;8598;50.508;10.436;2022-09-04T02:00:30;10.60;99.90
16964;DHT22;8598;50.508;10.436;2022-09-04T02:03:03;10.80;99.90
16964;DHT22;8598;50.508;10.436;2022-09-04T02:05:44;12.60;99.90
16964;DHT22;8598;50.508;10.436;2022-09-04T02:08:24;12.60;99.90
16964;DHT22;8598;50.508;10.436;2022-09-04T02:10:59;12.10;99.90
16964;DHT22;8598;50.508;10.436;2022-09-04T02:13:36;10.50;99.90
16964;DHT22;8598;50.508;10.436;2022-09-04T02:16:14;12.50;99.90
16964;DHT22;8598;50.508;10.436;2022-09-04T02:18:49;10.30;99.90
16964;DHT22;8598;50.508;10.436;2022-09-04T02:21:29;10.60;99.90
16964;DHT22;8598;50.508;10.436;2022-09-04T02:24:06;10.60;99.90
16964;DHT22;8598;50.508;10.436;2022-09-04T02:26:40;10.50;99.90
16964;DHT22;8598;50.508;10.436;2022-09-04T02:29:14;10.40;99.90
16964;DHT22;8598;50.508;10.436;2022-09-04T02:31:53;10.60;99.90
16964;DHT22;8598;50.508;10.436;2022-09-04T02:34:28;10.70;99.90
16964;DHT22;8598;50.508;10.436;2022-09-04T02:37:07;11.50;99.90
16964;DHT22;8598;50.508;10.436;2022-09-04T02:39:44;11.50;99.90
16964;DHT22;8598;50.508;10.436;2022-09-04T02:42:23;10.70;99.90
16964;DHT22;8598;50.508;10.436;2022-09-04T02:45:07;12.60;99.90
16964;DHT22;8598;50.508;10.436;2022-09-04T02:47:43;10.80;99.90
16964;DHT22;8598;50.508;10.436;2022-09-04T02:50:25;12.50;99.90
16964;DHT22;8598;50.508;10.436;2022-09-04T02:53:02;10.70;99.90
16964;DHT22;8598;50.508;10.436;2022-09-04T02:55:40;10.80;99.90
16964;DHT22;8598;50.508;10.436;2022-09-04T02:58:18;10.60;99.90
16964;DHT22;8598;50.508;10.436;2022-09-04T03:00:56;11.60;99.90
16964;DHT22;8598;50.508;10.436;2022-09-04T03:03:31;11.60;99.90
16964;DHT22;8598;50.508;10.436;2022-09-04T03:06:04;12.00;99.90
16964;DHT22;8598;50.508;10.436;2022-09-04T03:08:35;10.60;99.90
16964;DHT22;8598;50.508;10.436;2022-09-04T03:11:07;10.50;99.90
16964;DHT22;8598;50.508;10.436;2022-09-04T03:13:45;11.50;99.90
16964;DHT22;8598;50.508;10.436;2022-09-04T03:16:20;10.20;99.90
16964;DHT22;8598;50.508;10.436;2022-09-04T03:19:01;11.00;99.90
16964;DHT22;8598;50.508;10.436;2022-09-04T03:21:34;11.40;99.90
16964;DHT22;8598;50.508;10.436;2022-09-04T03:24:07;10.80;99.90
16964;DHT22;8598;50.508;10.436;2022-09-04T03:26:38;10.10;99.90
16964;DHT22;8598;50.508;10.436;2022-09-04T03:29:11;10.40;99.90
16964;DHT22;8598;50.508;10.436;2022-09-04T03:31:48;10.00;99.90
16964;DHT22;8598;50.508;10.436;2022-09-04T03:34:32;12.00;99.90
16964;DHT22;8598;50.508;10.436;2022-09-04T03:37:42;10.10;99.90
16964;DHT22;8598;50.508;10.436;2022-09-04T03:40:20;10.20;99.90
16964;DHT22;8598;50.508;10.436;2022-09-04T03:43:00;11.60;99.90
16964;DHT22;8598;50.508;10.436;2022-09-04T03:45:38;11.20;99.90
16964;DHT22;8598;50.508;10.436;2022-09-04T03:48:21;9.80;99.90
16964;DHT22;8598;50.508;10.436;2022-09-04T03:50:56;10.10;99.90
16964;DHT22;8598;50.508;10.436;2022-09-04T03:53:29;10.00;99.90
16964;DHT22;8598;50.508;10.436;2022-09-04T03:56:24;11.10;99.90
16964;DHT22;8598;50.508;10.436;2022-09-04T03:59:00;9.80;99.90
16964;DHT22;8598;50.508;10.436;2022-09-04T04:01:35;9.60;99.90
16964;DHT22;8598;50.508;10.436;2022-09-04T04:04:34;9.90;99.90
16964;DHT22;8598;50.508;10.436;2022-09-04T04:07:14;9.80;99.90
16964;DHT22;8598;50.508;10.436;2022-09-04T04:09:58;10.00;99.90
16964;DHT22;8598;50.508;10.436;2022-09-04T04:12:41;9.60;99.90
16964;DHT22;8598;50.508;10.436;2022-09-04T04:15:26;9.60;99.90
16964;DHT22;8598;50.508;10.436;2022-09-04T04:18:16;10.60;99.90
16964;DHT22;8598;50.508;10.436;2022-09-04T04:20:53;9.20;99.90
16964;DHT22;8598;50.508;10.436;2022-09-04T04:23:51;10.30;99.90
16964;DHT22;8598;50.508;10.436;2022-09-04T04:26:29;10.70;99.90
16964;DHT22;8598;50.508;10.436;2022-09-04T04:29:19;10.70;99.90
16964;DHT22;8598;50.508;10.436;2022-09-04T04:31:58;9.30;99.90
16964;DHT22;8598;50.508;10.436;2022-09-04T04:34:45;10.70;99.90
16964;DHT22;8598;50.508;10.436;2022-09-04T04:37:23;8.80;99.90
16964;DHT22;8598;50.508;10.436;2022-09-04T04:40:00;10.80;99.90
16964;DHT22;8598;50.508;10.436;2022-09-04T04:42:34;10.90;99.90
16964;DHT22;8598;50.508;10.436;2022-09-04T04:45:11;9.20;99.90
16964;DHT22;8598;50.508;10.436;2022-09-04T04:51:21;9.20;99.90
16964;DHT22;8598;50.508;10.436;2022-09-04T04:53:56;9.20;99.90
16964;DHT22;8598;50.508;10.436;2022-09-04T04:56:30;9.40;99.90
16964;DHT22;8598;50.508;10.436;2022-09-04T04:59:07;9.30;99.90
16964;DHT22;8598;50.508;10.436;2022-09-04T05:01:51;9.30;99.90
16964;DHT22;8598;50.508;10.436;2022-09-04T05:04:28;9.00;99.90
16964;DHT22;8598;50.508;10.436;2022-09-04T05:07:02;9.40;99.90
16964;DHT22;8598;50.508;10.436;2022-09-04T05:09:39;9.20;99.90
16964;DHT22;8598;50.508;10.436;2022-09-04T05:12:15;9.40;99.90
16964;DHT22;8598;50.508;10.436;2022-09-04T05:14:51;10.50;99.90
16964;DHT22;8598;50.508;10.436;2022-09-04T05:17:26;9.40;99.90
16964;DHT22;8598;50.508;10.436;2022-09-04T05:20:16;11.20;99.90
16964;DHT22;8598;50.508;10.436;2022-09-04T05:22:49;9.60;99.90
16964;DHT22;8598;50.508;10.436;2022-09-04T05:25:32;9.90;99.90
16964;DHT22;8598;50.508;10.436;2022-09-04T05:28:11;9.60;99.90
16964;DHT22;8598;50.508;10.436;2022-09-04T05:30:49;11.60;99.90
16964;DHT22;8598;50.508;10.436;2022-09-04T05:33:23;11.90;99.90
16964;DHT22;8598;50.508;10.436;2022-09-04T05:35:57;10.10;99.90
16964;DHT22;8598;50.508;10.436;2022-09-04T05:38:29;12.00;99.90
16964;DHT22;8598;50.508;10.436;2022-09-04T05:41:06;10.20;99.90
16964;DHT22;8598;50.508;10.436;2022-09-04T05:43:48;10.30;99.90
16964;DHT22;8598;50.508;10.436;2022-09-04T05:46:23;10.40;99.90
16964;DHT22;8598;50.508;10.436;2022-09-04T05:48:58;10.60;99.90
16964;DHT22;8598;50.508;10.436;2022-09-04T05:51:44;10.60;99.90
16964;DHT22;8598;50.508;10.436;2022-09-04T05:54:27;10.90;99.90
16964;DHT22;8598;50.508;10.436;2022-09-04T05:57:10;11.00;99.90
16964;DHT22;8598;50.508;10.436;2022-09-04T06:00:04;11.50;99.90
16964;DHT22;8598;50.508;10.436;2022-09-04T06:03:03;11.40;99.90
16964;DHT22;8598;50.508;10.436;2022-09-04T06:05:43;11.60;99.90
16964;DHT22;8598;50.508;10.436;2022-09-04T06:08:22;11.80;99.90
16964;DHT22;8598;50.508;10.436;2022-09-04T06:10:58;13.50;99.90
16964;DHT22;8598;50.508;10.436;2022-09-04T06:13:49;12.00;99.90
16964;DHT22;8598;50.508;10.436;2022-09-04T06:16:35;13.20;99.90
16964;DHT22;8598;50.508;10.436;2022-09-04T06:19:17;12.40;99.90
16964;DHT22;8598;50.508;10.436;2022-09-04T06:22:14;12.60;99.90
16964;DHT22;8598;50.508;10.436;2022-09-04T06:25:08;13.10;99.90
16964;DHT22;8598;50.508;10.436;2022-09-04T06:27:49;12.60;99.90
16964;DHT22;8598;50.508;10.436;2022-09-04T06:30:21;13.80;99.90
16964;DHT22;8598;50.508;10.436;2022-09-04T06:33:10;14.10;99.90
16964;DHT22;8598;50.508;10.436;2022-09-04T06:36:04;12.30;99.90
16964;DHT22;8598;50.508;10.436;2022-09-04T06:38:48;14.10;99.90
16964;DHT22;8598;50.508;10.436;2022-09-04T06:41:32;13.20;99.90
16964;DHT22;8598;50.508;10.436;2022-09-04T06:44:10;13.80;99.90
16964;DHT22;8598;50.508;10.436;2022-09-04T06:46:49;15.90;99.90
16964;DHT22;8598;50.508;10.436;2022-09-04T06:49:22;15.30;99.90
16964;DHT22;8598;50.508;10.436;2022-09-04T06:52:02;14.50;99.90
16964;DHT22;8598;50.508;10.436;2022-09-04T06:54:45;16.30;99.90
16964;DHT22;8598;50.508;10.436;2022-09-04T06:57:37;16.50;99.90
16964;DHT22;8598;50.508;10.436;2022-09-04T07:00:08;14.80;99.90
16964;DHT22;8598;50.508;10.436;2022-09-04T07:03:06;14.80;99.90
16964;DHT22;8598;50.508;10.436;2022-09-04T07:05:43;14.60;99.90
16964;DHT22;8598;50.508;10.436;2022-09-04T07:08:18;15.00;99.90
16964;DHT22;8598;50.508;10.436;2022-09-04T07:10:56;15.60;99.90
16964;DHT22;8598;50.508;10.436;2022-09-04T07:13:44;17.10;99.90
16964;DHT22;8598;50.508;10.436;2022-09-04T07:16:28;15.80;99.90
16964;DHT22;8598;50.508;10.436;2022-09-04T07:19:19;15.90;99.90
16964;DHT22;8598;50.508;10.436;2022-09-04T07:22:04;16.50;99.90
16964;DHT22;8598;50.508;10.436;2022-09-04T07:24:48;16.80;99.90
16964;DHT22;8598;50.508;10.436;2022-09-04T07:27:26;17.10;99.90
16964;DHT22;8598;50.508;10.436;2022-09-04T07:30:03;18.80;99.90
16964;DHT22;8598;50.508;10.436;2022-09-04T07:32:35;19.00;99.90
16964;DHT22;8598;50.508;10.436;2022-09-04T07:35:11;18.00;99.90
16964;DHT22;8598;50.508;10.436;2022-09-04T07:37:44;19.50;99.90
16964;DHT22;8598;50.508;10.436;2022-09-04T07:40:15;20.30;99.90
16964;DHT22;8598;50.508;10.436;2022-09-04T07:42:47;19.40;99.90
16964;DHT22;8598;50.508;10.436;2022-09-04T07:45:25;20.60;99.90
16964;DHT22;8598;50.508;10.436;2022-09-04T07:48:04;20.10;99.90
16964;DHT22;8598;50.508;10.436;2022-09-04T07:50:35;20.30;99.90
16964;DHT22;8598;50.508;10.436;2022-09-04T07:53:16;20.70;99.90
16964;DHT22;8598;50.508;10.436;2022-09-04T07:55:46;21.90;99.90
16964;DHT22;8598;50.508;10.436;2022-09-04T07:58:29;22.40;99.90
16964;DHT22;8598;50.508;10.436;2022-09-04T08:01:13;21.40;99.90
16964;DHT22;8598;50.508;10.436;2022-09-04T08:03:59;22.60;99.90
16964;DHT22;8598;50.508;10.436;2022-09-04T08:06:36;21.50;99.90
16964;DHT22;8598;50.508;10.436;2022-09-04T08:09:26;21.30;99.90
16964;DHT22;8598;50.508;10.436;2022-09-04T08:12:20;23.40;99.90
16964;DHT22;8598;50.508;10.436;2022-09-04T08:14:52;21.70;99.90
16964;DHT22;8598;50.508;10.436;2022-09-04T08:17:37;21.70;99.90
16964;DHT22;8598;50.508;10.436;2022-09-04T08:20:33;22.00;99.90
16964;DHT22;8598;50.508;10.436;2022-09-04T08:23:17;21.90;99.90
16964;DHT22;8598;50.508;10.436;2022-09-04T08:25:57;22.20;99.90
16964;DHT22;8598;50.508;10.436;2022-09-04T08:28:37;23.00;99.90
16964;DHT22;8598;50.508;10.436;2022-09-04T08:31:14;23.30;99.90
16964;DHT22;8598;50.508;10.436;2022-09-04T08:34:03;22.50;99.90
16964;DHT22;8598;50.508;10.436;2022-09-04T08:36:39;22.50;99.90
16964;DHT22;8598;50.508;10.436;2022-09-04T08:39:16;22.80;99.90
16964;DHT22;8598;50.508;10.436;2022-09-04T08:45:19;23.10;99.90
16964;DHT22;8598;50.508;10.436;2022-09-04T08:51:18;22.70;99.90
16964;DHT22;8598;50.508;10.436;2022-09-04T08:54:21;22.90;99.90
16964;DHT22;8598;50.508;10.436;2022-09-04T08:57:16;23.00;99.90
16964;DHT22;8598;50.508;10.436;2022-09-04T09:00:06;22.90;99.90
16964;DHT22;8598;50.508;10.436;2022-09-04T09:12:07;22.50;99.90
16964;DHT22;8598;50.508;10.436;2022-09-04T09:17:36;21.90;99.90
16964;DHT22;8598;50.508;10.436;2022-09-04T09:20:26;22.10;99.90
16964;DHT22;8598;50.508;10.436;2022-09-04T09:23:16;22.20;99.90
16964;DHT22;8598;50.508;10.436;2022-09-04T09:25:49;22.50;99.90
16964;DHT22;8598;50.508;10.436;2022-09-04T09:29:04;22.60;99.90
16964;DHT22;8598;50.508;10.436;2022-09-04T09:35:21;23.30;99.90
16964;DHT22;8598;50.508;10.436;2022-09-04T09:38:23;23.10;99.90
16964;DHT22;8598;50.508;10.436;2022-09-04T09:44:17;23.20;99.90
16964;DHT22;8598;50.508;10.436;2022-09-04T09:47:05;23.00;99.90
16964;DHT22;8598;50.508;10.436;2022-09-04T09:49:58;23.30;99.90
16964;DHT22;8598;50.508;10.436;2022-09-04T09:58:53;23.40;99.90
16964;DHT22;8598;50.508;10.436;2022-09-04T10:01:42;24.70;99.90
16964;DHT22;8598;50.508;10.436;2022-09-04T10:04:33;23.70;99.90
16964;DHT22;8598;50.508;10.436;2022-09-04T10:07:42;23.60;99.90
16964;DHT22;8598;50.508;10.436;2022-09-04T10:10:44;23.80;99.90
16964;DHT22;8598;50.508;10.436;2022-09-04T10:13:33;24.80;99.90
16964;DHT22;8598;50.508;10.436;2022-09-04T10:16:22;23.50;99.90
16964;DHT22;8598;50.508;10.436;2022-09-04T10:19:11;23.70;99.90
16964;DHT22;8598;50.508;10.436;2022-09-04T10:25:23;23.90;99.90
16964;DHT22;8598;50.508;10.436;2022-09-04T10:28:05;25.20;99.90
16964;DHT22;8598;50.508;10.436;2022-09-04T10:30:50;24.30;99.90
16964;DHT22;8598;50.508;10.436;2022-09-04T10:33:26;23.90;99.90
16964;DHT22;8598;50.508;10.436;2022-09-04T10:36:08;23.80;99.90
16964;DHT22;8598;50.508;10.436;2022-09-04T10:38:38;24.00;99.90
16964;DHT22;8598;50.508;10.436;2022-09-04T10:41:49;24.80;99.90
16964;DHT22;8598;50.508;10.436;2022-09-04T10:44:54;24.50;99.90
16964;DHT22;8598;50.508;10.436;2022-09-04T10:50:36;24.50;99.90
16964;DHT22;8598;50.508;10.436;2022-09-04T10:53:43;24.40;99.90
16964;DHT22;8598;50.508;10.436;2022-09-04T10:56:20;25.70;99.90
16964;DHT22;8598;50.508;10.436;2022-09-04T10:59:32;25.00;99.90
16964;DHT22;8598;50.508;10.436;2022-09-04T11:05:30;25.10;99.90
16964;DHT22;8598;50.508;10.436;2022-09-04T11:08:17;26.20;99.90
16964;DHT22;8598;50.508;10.436;2022-09-04T11:10:59;27.00;99.90
16964;DHT22;8598;50.508;10.436;2022-09-04T11:13:48;26.00;99.90
16964;DHT22;8598;50.508;10.436;2022-09-04T11:16:47;25.50;99.90
16964;DHT22;8598;50.508;10.436;2022-09-04T11:19:52;25.60;99.90
16964;DHT22;8598;50.508;10.436;2022-09-04T11:22:51;25.20;99.90
16964;DHT22;8598;50.508;10.436;2022-09-04T11:28:49;25.20;99.90
16964;DHT22;8598;50.508;10.436;2022-09-04T11:31:33;25.10;99.90
16964;DHT22;8598;50.508;10.436;2022-09-04T11:34:42;27.00;99.90
16964;DHT22;8598;50.508;10.436;2022-09-04T11:43:24;24.20;99.90
16964;DHT22;8598;50.508;10.436;2022-09-04T11:46:28;25.10;99.90
16964;DHT22;8598;50.508;10.436;2022-09-04T11:49:21;25.00;99.90
16964;DHT22;8598;50.508;10.436;2022-09-04T11:52:13;25.10;99.90
16964;DHT22;8598;50.508;10.436;2022-09-04T11:55:10;25.00;99.90
16964;DHT22;8598;50.508;10.436;2022-09-04T11:57:50;25.00;99.90
16964;DHT22;8598;50.508;10.436;2022-09-04T12:00:19;26.30;99.90
16964;DHT22;8598;50.508;10.436;2022-09-04T12:03:07;27.40;99.90
16964;DHT22;8598;50.508;10.436;2022-09-04T12:05:53;26.50;99.90
16964;DHT22;8598;50.508;10.436;2022-09-04T12:08:39;25.30;99.90
16964;DHT22;8598;50.508;10.436;2022-09-04T12:14:27;25.30;99.90
16964;DHT22;8598;50.508;10.436;2022-09-04T12:20:21;24.90;99.90
16964;DHT22;8598;50.508;10.436;2022-09-04T12:32:07;25.30;99.90
16964;DHT22;8598;50.508;10.436;2022-09-04T12:35:03;26.10;99.90
16964;DHT22;8598;50.508;10.436;2022-09-04T12:40:47;25.10;99.90
16964;DHT22;8598;50.508;10.436;2022-09-04T12:43:28;24.60;99.90
16964;DHT22;8598;50.508;10.436;2022-09-04T12:46:05;24.80;99.90
16964;DHT22;8598;50.508;10.436;2022-09-04T12:48:51;26.30;99.90
16964;DHT22;8598;50.508;10.436;2022-09-04T12:51:22;25.50;99.90
16964;DHT22;8598;50.508;10.436;2022-09-04T12:54:15;25.90;99.90
16964;DHT22;8598;50.508;10.436;2022-09-04T12:56:48;25.80;99.90
16964;DHT22;8598;50.508;10.436;2022-09-04T12:59:35;26.90;99.90
16964;DHT22;8598;50.508;10.436;2022-09-04T13:02:12;25.80;99.90
16964;DHT22;8598;50.508;10.436;2022-09-04T13:04:48;25.60;99.90
16964;DHT22;8598;50.508;10.436;2022-09-04T13:07:37;25.50;99.90
16964;DHT22;8598;50.508;10.436;2022-09-04T13:10:19;25.50;99.90
16964;DHT22;8598;50.508;10.436;2022-09-04T13:12:55;25.20;99.90
16964;DHT22;8598;50.508;10.436;2022-09-04T13:15:30;25.20;99.90
16964;DHT22;8598;50.508;10.436;2022-09-04T13:18:17;25.50;99.90
16964;DHT22;8598;50.508;10.436;2022-09-04T13:20:51;25.70;99.90
16964;DHT22;8598;50.508;10.436;2022-09-04T13:23:35;26.10;99.90
16964;DHT22;8598;50.508;10.436;2022-09-04T13:26:21;25.70;99.90
16964;DHT22;8598;50.508;10.436;2022-09-04T13:29:02;26.00;99.90
16964;DHT22;8598;50.508;10.436;2022-09-04T13:34:36;25.70;99.90
16964;DHT22;8598;50.508;10.436;2022-09-04T13:37:10;25.70;99.90
16964;DHT22;8598;50.508;10.436;2022-09-04T13:39:53;25.70;99.90
16964;DHT22;8598;50.508;10.436;2022-09-04T13:45:36;25.40;99.90
16964;DHT22;8598;50.508;10.436;2022-09-04T13:48:06;25.30;99.90
16964;DHT22;8598;50.508;10.436;2022-09-04T13:50:38;25.80;99.90
16964;DHT22;8598;50.508;10.436;2022-09-04T13:53:11;25.60;99.90
16964;DHT22;8598;50.508;10.436;2022-09-04T13:55:46;24.80;99.90
16964;DHT22;8598;50.508;10.436;2022-09-04T13:58:17;24.90;99.90
16964;DHT22;8598;50.508;10.436;2022-09-04T14:00:48;24.50;99.90
16964;DHT22;8598;50.508;10.436;2022-09-04T14:03:26;24.60;99.90
16964;DHT22;8598;50.508;10.436;2022-09-04T14:05:55;24.80;99.90
16964;DHT22;8598;50.508;10.436;2022-09-04T14:08:22;24.80;99.90
16964;DHT22;8598;50.508;10.436;2022-09-04T14:11:22;26.20;99.90
16964;DHT22;8598;50.508;10.436;2022-09-04T14:14:12;25.20;99.90
16964;DHT22;8598;50.508;10.436;2022-09-04T14:16:46;25.40;99.90
16964;DHT22;8598;50.508;10.436;2022-09-04T14:19:25;25.90;99.90
16964;DHT22;8598;50.508;10.436;2022-09-04T14:22:06;26.10;99.90
16964;DHT22;8598;50.508;10.436;2022-09-04T14:24:40;26.90;99.90
16964;DHT22;8598;50.508;10.436;2022-09-04T14:27:15;26.30;99.90
16964;DHT22;8598;50.508;10.436;2022-09-04T14:29:56;26.20;99.90
16964;DHT22;8598;50.508;10.436;2022-09-04T14:32:35;27.60;99.90
16964;DHT22;8598;50.508;10.436;2022-09-04T14:35:11;26.40;99.90
16964;DHT22;8598;50.508;10.436;2022-09-04T14:37:58;26.30;99.90
16964;DHT22;8598;50.508;10.436;2022-09-04T14:40:29;26.20;99.90
16964;DHT22;8598;50.508;10.436;2022-09-04T14:43:02;26.30;99.90
16964;DHT22;8598;50.508;10.436;2022-09-04T14:45:53;27.60;99.90
16964;DHT22;8598;50.508;10.436;2022-09-04T14:48:25;26.20;99.90
16964;DHT22;8598;50.508;10.436;2022-09-04T14:50:55;26.10;99.90
16964;DHT22;8598;50.508;10.436;2022-09-04T14:53:26;26.00;99.90
16964;DHT22;8598;50.508;10.436;2022-09-04T14:56:15;26.00;99.90
16964;DHT22;8598;50.508;10.436;2022-09-04T14:58:46;25.90;99.90
16964;DHT22;8598;50.508;10.436;2022-09-04T15:01:19;25.20;99.90
16964;DHT22;8598;50.508;10.436;2022-09-04T15:03:53;26.00;99.90
16964;DHT22;8598;50.508;10.436;2022-09-04T15:06:25;26.10;99.90
16964;DHT22;8598;50.508;10.436;2022-09-04T15:08:54;26.20;99.90
16964;DHT22;8598;50.508;10.436;2022-09-04T15:11:27;26.20;99.90
16964;DHT22;8598;50.508;10.436;2022-09-04T15:13:58;27.30;99.90
16964;DHT22;8598;50.508;10.436;2022-09-04T15:16:42;26.00;99.90
16964;DHT22;8598;50.508;10.436;2022-09-04T15:19:22;26.10;99.90
16964;DHT22;8598;50.508;10.436;2022-09-04T15:21:57;26.20;99.90
16964;DHT22;8598;50.508;10.436;2022-09-04T15:24:28;26.00;99.90
16964;DHT22;8598;50.508;10.436;2022-09-04T15:27:07;26.10;99.90
16964;DHT22;8598;50.508;10.436;2022-09-04T15:29:39;26.20;99.90
16964;DHT22;8598;50.508;10.436;2022-09-04T15:32:19;26.00;99.90
16964;DHT22;8598;50.508;10.436;2022-09-04T15:34:47;25.80;99.90
16964;DHT22;8598;50.508;10.436;2022-09-04T15:37:20;26.60;99.90
16964;DHT22;8598;50.508;10.436;2022-09-04T15:39:53;25.40;99.90
16964;DHT22;8598;50.508;10.436;2022-09-04T15:42:33;25.20;99.90
16964;DHT22;8598;50.508;10.436;2022-09-04T15:45:07;25.20;99.90
16964;DHT22;8598;50.508;10.436;2022-09-04T15:47:52;25.20;99.90
16964;DHT22;8598;50.508;10.436;2022-09-04T15:50:23;25.30;99.90
16964;DHT22;8598;50.508;10.436;2022-09-04T15:52:54;25.40;99.90
16964;DHT22;8598;50.508;10.436;2022-09-04T15:55:25;25.40;99.90
16964;DHT22;8598;50.508;10.436;2022-09-04T15:57:57;24.60;99.90
16964;DHT22;8598;50.508;10.436;2022-09-04T16:00:32;25.40;99.90
16964;DHT22;8598;50.508;10.436;2022-09-04T16:03:09;25.10;99.90
16964;DHT22;8598;50.508;10.436;2022-09-04T16:05:42;25.20;99.90
16964;DHT22;8598;50.508;10.436;2022-09-04T16:08:19;25.00;99.90
16964;DHT22;8598;50.508;10.436;2022-09-04T16:10:59;26.20;99.90
16964;DHT22;8598;50.508;10.436;2022-09-04T16:13:36;25.10;99.90
16964;DHT22;8598;50.508;10.436;2022-09-04T16:16:09;25.10;99.90
16964;DHT22;8598;50.508;10.436;2022-09-04T16:18:58;26.50;99.90
16964;DHT22;8598;50.508;10.436;2022-09-04T16:21:35;25.10;99.90
16964;DHT22;8598;50.508;10.436;2022-09-04T16:24:06;25.00;99.90
16964;DHT22;8598;50.508;10.436;2022-09-04T16:26:34;25.00;99.90
16964;DHT22;8598;50.508;10.436;2022-09-04T16:29:05;25.60;99.90
16964;DHT22;8598;50.508;10.436;2022-09-04T16:31:34;25.00;99.90
16964;DHT22;8598;50.508;10.436;2022-09-04T16:34:11;25.00;99.90
16964;DHT22;8598;50.508;10.436;2022-09-04T16:36:44;25.00;99.90
16964;DHT22;8598;50.508;10.436;2022-09-04T16:39:23;25.50;99.90
16964;DHT22;8598;50.508;10.436;2022-09-04T16:41:56;24.90;99.90
16964;DHT22;8598;50.508;10.436;2022-09-04T16:44:28;24.90;99.90
16964;DHT22;8598;50.508;10.436;2022-09-04T16:47:07;24.90;99.90
16964;DHT22;8598;50.508;10.436;2022-09-04T16:49:42;25.40;99.90
16964;DHT22;8598;50.508;10.436;2022-09-04T16:52:32;24.60;99.90
16964;DHT22;8598;50.508;10.436;2022-09-04T16:55:05;24.50;99.90
16964;DHT22;8598;50.508;10.436;2022-09-04T16:57:38;24.40;99.90
16964;DHT22;8598;50.508;10.436;2022-09-04T17:00:09;24.60;99.90
16964;DHT22;8598;50.508;10.436;2022-09-04T17:02:42;24.30;99.90
16964;DHT22;8598;50.508;10.436;2022-09-04T17:05:19;24.10;99.90
16964;DHT22;8598;50.508;10.436;2022-09-04T17:07:54;24.00;99.90
16964;DHT22;8598;50.508;10.436;2022-09-04T17:10:32;23.90;99.90
16964;DHT22;8598;50.508;10.436;2022-09-04T17:13:04;23.80;99.90
16964;DHT22;8598;50.508;10.436;2022-09-04T17:15:42;23.70;99.90
16964;DHT22;8598;50.508;10.436;2022-09-04T17:18:10;23.50;99.90
16964;DHT22;8598;50.508;10.436;2022-09-04T17:20:43;23.30;99.90
16964;DHT22;8598;50.508;10.436;2022-09-04T17:23:17;23.20;99.90
16964;DHT22;8598;50.508;10.436;2022-09-04T17:25:49;23.90;99.90
16964;DHT22;8598;50.508;10.436;2022-09-04T17:28:45;22.90;99.90
16964;DHT22;8598;50.508;10.436;2022-09-04T17:31:20;22.80;99.90
16964;DHT22;8598;50.508;10.436;2022-09-04T17:33:54;23.20;99.90
16964;DHT22;8598;50.508;10.436;2022-09-04T17:36:30;23.00;99.90
16964;DHT22;8598;50.508;10.436;2022-09-04T17:39:03;22.30;99.90
16964;DHT22;8598;50.508;10.436;2022-09-04T17:41:40;22.20;99.90
16964;DHT22;8598;50.508;10.436;2022-09-04T17:44:21;22.00;99.90
16964;DHT22;8598;50.508;10.436;2022-09-04T17:47:01;21.70;99.90
16964;DHT22;8598;50.508;10.436;2022-09-04T17:49:32;22.80;99.90
16964;DHT22;8598;50.508;10.436;2022-09-04T17:52:03;21.30;99.90
16964;DHT22;8598;50.508;10.436;2022-09-04T17:54:37;21.10;99.90
16964;DHT22;8598;50.508;10.436;2022-09-04T17:57:12;21.10;99.90
16964;DHT22;8598;50.508;10.436;2022-09-04T17:59:43;20.80;99.90
16964;DHT22;8598;50.508;10.436;2022-09-04T18:02:15;21.20;99.90
16964;DHT22;8598;50.508;10.436;2022-09-04T18:04:49;21.80;99.90
16964;DHT22;8598;50.508;10.436;2022-09-04T18:07:25;20.30;99.90
16964;DHT22;8598;50.508;10.436;2022-09-04T18:10:06;20.20;99.90
16964;DHT22;8598;50.508;10.436;2022-09-04T18:12:42;20.00;99.90
16964;DHT22;8598;50.508;10.436;2022-09-04T18:15:16;19.90;99.90